createdAt,value
2023-03-02T00:02:22.607Z,1.30
2023-03-02T00:05:14.536Z,1.30
2023-03-02T00:08:04.132Z,1.20
2023-03-02T00:10:50.779Z,1.20
2023-03-02T00:13:39.523Z,1.50
2023-03-02T00:16:26.839Z,1.30
2023-03-02T00:19:13.894Z,1.20
2023-03-02T00:22:00.697Z,1.20
2023-03-02T00:24:49.073Z,1.20
2023-03-02T00:27:36.055Z,1.20
2023-03-02T00:30:23.050Z,1.20
2023-03-02T00:33:09.844Z,1.10
2023-03-02T00:35:57.093Z,1.20
2023-03-02T00:38:44.020Z,1.10
2023-03-02T00:41:32.322Z,1.00
2023-03-02T00:44:19.108Z,1.00
2023-03-02T00:47:06.285Z,1.00
2023-03-02T00:49:53.092Z,0.90
2023-03-02T00:52:42.668Z,1.00
2023-03-02T00:55:30.496Z,1.00
2023-03-02T00:58:18.565Z,0.80
2023-03-02T01:01:08.417Z,0.90
2023-03-02T01:03:55.028Z,0.90
2023-03-02T01:06:47.251Z,1.00
2023-03-02T01:09:34.440Z,0.90
2023-03-02T01:12:21.363Z,0.90
2023-03-02T01:15:14.145Z,0.90
2023-03-02T01:18:01.772Z,0.80
2023-03-02T01:20:49.102Z,0.80
2023-03-02T01:23:36.269Z,0.90
2023-03-02T01:26:23.061Z,0.90
2023-03-02T01:29:11.622Z,0.80
2023-03-02T01:31:59.965Z,0.80
2023-03-02T01:34:47.099Z,0.90
2023-03-02T01:37:33.813Z,0.80
2023-03-02T01:40:22.310Z,0.90
2023-03-02T01:43:13.726Z,0.80
2023-03-02T01:46:03.255Z,0.80
2023-03-02T01:48:54.768Z,0.80
2023-03-02T01:51:48.249Z,0.70
2023-03-02T01:54:35.299Z,0.70
2023-03-02T01:57:26.808Z,0.60
2023-03-02T02:00:17.165Z,0.70
2023-03-02T02:03:10.123Z,0.70
2023-03-02T02:06:07.401Z,0.60
2023-03-02T02:08:57.307Z,0.60
2023-03-02T02:11:44.753Z,0.60
2023-03-02T02:14:31.450Z,0.70
2023-03-02T02:17:20.741Z,0.70
2023-03-02T02:20:19.589Z,0.70
2023-03-02T02:23:20.520Z,0.70
2023-03-02T02:26:18.594Z,0.60
2023-03-02T02:29:12.231Z,0.60
2023-03-02T02:32:03.395Z,0.60
2023-03-02T02:35:47.825Z,0.60
2023-03-02T02:38:35.898Z,0.60
2023-03-02T02:41:27.680Z,0.50
2023-03-02T02:44:17.160Z,0.50
2023-03-02T02:47:04.232Z,0.60
2023-03-02T02:49:54.725Z,0.50
2023-03-02T02:52:42.474Z,0.50
2023-03-02T02:55:30.277Z,0.50
2023-03-02T02:58:28.868Z,0.60
2023-03-02T03:01:18.257Z,0.50
2023-03-02T03:04:07.681Z,0.60
2023-03-02T03:06:56.722Z,0.50
2023-03-02T03:09:43.869Z,0.30
2023-03-02T03:12:34.684Z,0.40
2023-03-02T03:15:26.253Z,0.30
2023-03-02T03:18:13.579Z,0.20
2023-03-02T03:21:00.721Z,0.20
2023-03-02T03:23:49.119Z,0.30
2023-03-02T03:26:36.254Z,0.20
2023-03-02T03:29:24.881Z,0.20
2023-03-02T03:32:13.079Z,0.10
2023-03-02T03:35:00.400Z,0.20
2023-03-02T03:37:48.560Z,0.20
2023-03-02T03:40:35.713Z,0.20
2023-03-02T03:43:22.705Z,0.30
2023-03-02T03:46:09.519Z,0.30
2023-03-02T03:48:58.253Z,0.30
2023-03-02T03:51:45.439Z,0.30
2023-03-02T03:54:35.779Z,0.30
2023-03-02T03:57:22.777Z,0.10
2023-03-02T04:00:14.977Z,0.00
2023-03-02T04:03:02.000Z,0.10
2023-03-02T04:05:50.818Z,0.10
2023-03-02T04:08:37.660Z,0.00
2023-03-02T04:11:24.749Z,0.00
2023-03-02T04:14:12.693Z,0.10
2023-03-02T04:17:00.000Z,0.20
2023-03-02T04:19:46.862Z,0.20
2023-03-02T04:22:35.308Z,0.10
2023-03-02T04:25:24.989Z,0.20
2023-03-02T04:28:12.108Z,0.10
2023-03-02T04:30:58.812Z,0.10
2023-03-02T04:33:45.874Z,0.20
2023-03-02T04:36:34.628Z,0.00
2023-03-02T04:39:23.725Z,0.00
2023-03-02T04:42:10.742Z,0.00
2023-03-02T04:44:57.511Z,0.10
2023-03-02T04:47:44.811Z,-0.10
2023-03-02T04:50:31.805Z,-0.10
2023-03-02T04:53:19.092Z,-0.10
2023-03-02T04:56:08.896Z,-0.20
2023-03-02T04:58:56.144Z,-0.20
2023-03-02T05:01:43.141Z,-0.30
2023-03-02T05:04:30.822Z,-0.30
2023-03-02T05:07:17.874Z,-0.30
2023-03-02T05:10:05.028Z,-0.40
2023-03-02T05:12:58.291Z,-0.40
2023-03-02T05:15:45.116Z,-0.30
2023-03-02T05:18:32.434Z,-0.30
2023-03-02T05:21:19.768Z,-0.30
2023-03-02T05:24:07.538Z,-0.20
2023-03-02T05:26:54.246Z,-0.30
2023-03-02T05:29:43.013Z,-0.30
2023-03-02T05:32:30.065Z,-0.30
2023-03-02T05:35:17.537Z,-0.30
2023-03-02T05:38:05.160Z,-0.30
2023-03-02T05:40:52.185Z,-0.30
2023-03-02T05:43:38.933Z,-0.30
2023-03-02T05:46:28.009Z,-0.30
2023-03-02T05:49:14.970Z,-0.30
2023-03-02T05:52:02.465Z,-0.30
2023-03-02T05:54:49.192Z,-0.30
2023-03-02T05:57:36.566Z,-0.30
2023-03-02T06:00:24.820Z,-0.20
2023-03-02T06:03:13.370Z,-0.30
2023-03-02T06:06:00.324Z,-0.20
2023-03-02T06:08:47.915Z,-0.20
2023-03-02T06:11:34.838Z,-0.20
2023-03-02T06:14:21.913Z,-0.10
2023-03-02T06:17:08.682Z,0.00
2023-03-02T06:19:56.954Z,-0.10
2023-03-02T06:22:47.638Z,-0.10
2023-03-02T06:25:35.971Z,-0.20
2023-03-02T06:28:23.204Z,0.00
2023-03-02T06:31:10.480Z,-0.20
2023-03-02T06:33:57.818Z,-0.30
2023-03-02T06:36:46.102Z,-0.20
2023-03-02T06:39:34.168Z,-0.30
2023-03-02T06:42:20.897Z,-0.30
2023-03-02T06:45:09.503Z,-0.30
2023-03-02T06:47:58.559Z,-0.20
2023-03-02T06:50:45.772Z,-0.30
2023-03-02T06:53:34.203Z,-0.20
2023-03-02T06:56:21.067Z,-0.20
2023-03-02T06:59:07.874Z,-0.20
2023-03-02T07:01:55.062Z,-0.20
2023-03-02T07:04:42.409Z,-0.10
2023-03-02T07:07:29.596Z,-0.10
2023-03-02T07:10:18.765Z,-0.20
2023-03-02T07:13:08.003Z,-0.40
2023-03-02T07:15:56.093Z,-0.40
2023-03-02T07:18:43.391Z,-0.40
2023-03-02T07:21:32.143Z,-0.40
2023-03-02T07:24:19.925Z,-0.40
2023-03-02T07:27:08.617Z,-0.30
2023-03-02T07:29:55.906Z,0.00
2023-03-02T07:32:45.442Z,0.00
2023-03-02T07:35:32.689Z,0.00
2023-03-02T07:38:19.497Z,0.00
2023-03-02T07:41:09.919Z,-0.10
2023-03-02T07:43:58.770Z,0.00
2023-03-02T07:46:45.483Z,-0.10
2023-03-02T07:49:32.509Z,-0.40
2023-03-02T07:52:19.671Z,-0.40
2023-03-02T07:55:07.355Z,-0.50
2023-03-02T07:57:54.551Z,-0.40
2023-03-02T08:00:42.896Z,-0.30
2023-03-02T08:03:29.830Z,-0.20
2023-03-02T08:06:16.890Z,-0.20
2023-03-02T08:09:05.287Z,0.00
2023-03-02T08:11:52.070Z,0.00
2023-03-02T08:14:39.945Z,0.20
2023-03-02T08:17:28.640Z,0.30
2023-03-02T08:20:16.165Z,0.30
2023-03-02T08:23:03.017Z,0.30
2023-03-02T08:25:50.089Z,0.10
2023-03-02T08:28:37.430Z,-0.10
2023-03-02T08:31:24.564Z,-0.30
2023-03-02T08:34:12.906Z,-0.20
2023-03-02T08:36:59.687Z,-0.10
2023-03-02T08:39:47.189Z,0.00
2023-03-02T08:42:34.295Z,0.00
2023-03-02T08:45:21.334Z,0.10
2023-03-02T08:48:08.275Z,-0.10
2023-03-02T08:50:59.826Z,0.10
2023-03-02T08:53:50.497Z,-0.10
2023-03-02T08:56:39.350Z,0.00
2023-03-02T08:59:27.016Z,0.10
2023-03-02T09:02:14.290Z,0.30
2023-03-02T09:05:01.396Z,0.50
2023-03-02T09:07:50.262Z,0.10
2023-03-02T09:10:37.646Z,0.00
2023-03-02T09:13:24.832Z,0.00
2023-03-02T09:16:13.153Z,0.10
2023-03-02T09:19:00.156Z,0.00
2023-03-02T09:21:47.141Z,0.20
2023-03-02T09:24:35.833Z,0.00
2023-03-02T09:27:25.819Z,-0.10
2023-03-02T09:30:14.267Z,0.10
2023-03-02T09:33:01.416Z,0.20
2023-03-02T09:35:48.672Z,0.40
2023-03-02T09:38:36.210Z,0.80
2023-03-02T09:41:56.467Z,1.10
2023-03-02T09:45:19.211Z,1.20
2023-03-02T09:48:15.861Z,1.10
2023-03-02T09:51:16.807Z,1.20
2023-03-02T09:54:11.839Z,1.30
2023-03-02T09:57:02.134Z,1.50
2023-03-02T09:59:57.306Z,1.50
2023-03-02T10:02:49.934Z,1.50
2023-03-02T10:05:40.623Z,1.50
2023-03-02T10:08:29.870Z,1.60
2023-03-02T10:11:24.220Z,1.80
2023-03-02T10:14:22.611Z,1.90
2023-03-02T10:17:36.809Z,2.10
2023-03-02T10:20:34.250Z,2.20
2023-03-02T10:23:40.240Z,2.30
2023-03-02T10:26:41.811Z,2.20
2023-03-02T10:29:42.148Z,2.40
2023-03-02T10:32:32.840Z,2.40
2023-03-02T10:35:23.046Z,2.50
2023-03-02T10:38:15.074Z,2.40
2023-03-02T10:41:04.689Z,2.40
2023-03-02T10:43:55.763Z,1.60
2023-03-02T10:46:46.366Z,1.20
2023-03-02T10:49:35.300Z,1.30
2023-03-02T10:52:24.592Z,1.40
2023-03-02T10:55:15.993Z,1.80
2023-03-02T10:58:05.396Z,2.00
2023-03-02T11:01:03.250Z,2.30
2023-03-02T11:03:59.160Z,2.00
2023-03-02T11:06:46.216Z,2.20
2023-03-02T11:09:33.377Z,2.30
2023-03-02T11:12:20.231Z,2.50
2023-03-02T11:15:23.158Z,2.10
2023-03-02T11:18:22.035Z,2.30
2023-03-02T11:21:25.429Z,2.90
2023-03-02T11:24:16.218Z,3.40
2023-03-02T11:27:08.158Z,3.10
2023-03-02T11:29:59.776Z,3.30
2023-03-02T11:32:54.416Z,4.00
2023-03-02T11:35:46.717Z,3.90
2023-03-02T11:38:42.687Z,4.60
2023-03-02T11:41:31.838Z,4.90
2023-03-02T11:44:20.387Z,3.90
2023-03-02T11:47:12.186Z,4.00
2023-03-02T11:50:05.326Z,4.50
2023-03-02T11:52:56.170Z,4.10
2023-03-02T11:55:48.636Z,4.80
2023-03-02T11:58:35.978Z,5.60
2023-03-02T12:01:25.991Z,6.80
2023-03-02T12:04:28.886Z,6.10
2023-03-02T12:07:22.925Z,5.00
2023-03-02T12:10:28.500Z,5.30
2023-03-02T12:13:19.483Z,4.40
2023-03-02T12:16:21.413Z,4.20
2023-03-02T12:19:25.574Z,4.20
2023-03-02T12:22:14.872Z,4.50
2023-03-02T12:25:05.911Z,4.40
2023-03-02T12:27:56.552Z,4.70
2023-03-02T12:30:45.081Z,4.70
2023-03-02T12:33:31.887Z,4.30
2023-03-02T12:36:25.248Z,4.60
2023-03-02T12:39:28.729Z,4.90
2023-03-02T12:42:43.269Z,5.50
2023-03-02T12:45:43.407Z,6.50
2023-03-02T12:48:39.860Z,6.50
2023-03-02T12:51:29.481Z,6.80
2023-03-02T12:54:18.310Z,7.60
2023-03-02T12:57:09.096Z,8.20
2023-03-02T12:59:58.228Z,8.50
2023-03-02T13:02:48.695Z,8.70
2023-03-02T13:05:38.811Z,8.60
2023-03-02T13:08:29.235Z,8.00
2023-03-02T13:11:23.753Z,8.20
2023-03-02T13:14:21.145Z,8.30
2023-03-02T13:17:08.181Z,7.90
2023-03-02T13:19:55.479Z,8.00
2023-03-02T13:22:44.307Z,7.90
2023-03-02T13:25:32.880Z,7.90
2023-03-02T13:28:28.732Z,8.00
2023-03-02T13:31:22.430Z,7.90
2023-03-02T13:34:22.622Z,7.90
2023-03-02T13:37:33.536Z,7.80
2023-03-02T13:40:40.965Z,7.80
2023-03-02T13:43:49.158Z,7.70
2023-03-02T13:46:37.401Z,7.60
2023-03-02T13:49:30.368Z,7.70
2023-03-02T13:52:23.473Z,7.80
2023-03-02T13:55:15.224Z,7.70
2023-03-02T13:58:03.923Z,7.70
2023-03-02T14:00:52.024Z,7.60
2023-03-02T14:03:38.944Z,7.70
2023-03-02T14:06:25.844Z,7.60
2023-03-02T14:09:13.129Z,7.40
2023-03-02T14:12:00.319Z,7.40
2023-03-02T14:14:48.665Z,7.20
2023-03-02T14:17:36.703Z,7.20
2023-03-02T14:20:23.875Z,7.10
2023-03-02T14:23:11.579Z,6.90
2023-03-02T14:25:58.764Z,6.80
2023-03-02T14:28:51.094Z,6.90
2023-03-02T14:31:42.387Z,6.90
2023-03-02T14:34:29.497Z,6.70
2023-03-02T14:37:22.259Z,6.70
2023-03-02T14:40:16.312Z,6.50
2023-03-02T14:43:03.527Z,6.50
2023-03-02T14:45:52.178Z,6.50
2023-03-02T14:48:40.655Z,6.40
2023-03-02T14:51:31.531Z,6.40
2023-03-02T14:54:21.140Z,6.40
2023-03-02T14:57:14.333Z,6.50
2023-03-02T15:00:01.261Z,6.60
2023-03-02T15:02:48.360Z,6.40
2023-03-02T15:05:36.943Z,6.50
2023-03-02T15:08:24.833Z,6.50
2023-03-02T15:11:11.852Z,6.40
2023-03-02T15:13:58.987Z,6.40
2023-03-02T15:16:47.842Z,6.40
2023-03-02T15:19:34.731Z,5.50
2023-03-02T15:22:23.263Z,5.00
2023-03-02T15:25:11.009Z,4.70
2023-03-02T15:27:58.637Z,4.50
2023-03-02T15:30:45.486Z,4.30
2023-03-02T15:33:32.596Z,3.90
2023-03-02T15:36:19.626Z,3.70
2023-03-02T15:39:08.972Z,3.50
2023-03-02T15:41:55.885Z,3.60
2023-03-02T15:44:42.955Z,3.50
2023-03-02T15:47:30.213Z,3.30
2023-03-02T15:50:20.128Z,3.20
2023-03-02T15:53:07.351Z,3.00
2023-03-02T15:55:55.639Z,3.20
2023-03-02T15:58:51.660Z,3.30
2023-03-02T16:01:38.768Z,3.10
2023-03-02T16:04:26.011Z,3.10
2023-03-02T16:07:13.100Z,2.90
2023-03-02T16:10:00.056Z,2.80
2023-03-02T16:12:48.327Z,2.50
2023-03-02T16:15:40.552Z,2.50
2023-03-02T16:18:27.506Z,2.60
2023-03-02T16:21:15.038Z,2.50
2023-03-02T16:24:04.734Z,2.50
2023-03-02T16:26:54.272Z,2.50
2023-03-02T16:29:43.401Z,2.40
2023-03-02T16:32:33.163Z,2.40
2023-03-02T16:35:20.352Z,2.50
2023-03-02T16:38:09.940Z,2.40
2023-03-02T16:40:57.328Z,2.20
2023-03-02T16:43:47.099Z,2.30
2023-03-02T16:46:43.337Z,2.30
2023-03-02T16:49:30.547Z,2.30
2023-03-02T16:52:18.457Z,2.30
2023-03-02T16:55:05.641Z,2.20
2023-03-02T16:57:52.753Z,2.20
2023-03-02T17:00:39.893Z,2.10
2023-03-02T17:03:28.331Z,2.00
2023-03-02T17:06:17.662Z,2.10
2023-03-02T17:09:05.178Z,2.10
2023-03-02T17:11:52.267Z,2.00
2023-03-02T17:14:39.317Z,2.00
2023-03-02T17:17:27.235Z,1.90
2023-03-02T17:20:16.830Z,1.90
2023-03-02T17:23:06.003Z,1.90
2023-03-02T17:25:57.428Z,1.80
2023-03-02T17:28:46.578Z,1.70
2023-03-02T17:31:36.173Z,1.60
2023-03-02T17:34:28.771Z,1.60
2023-03-02T17:37:21.582Z,1.70
2023-03-02T17:40:19.340Z,1.50
2023-03-02T17:43:08.646Z,1.50
2023-03-02T17:45:57.514Z,1.50
2023-03-02T17:48:47.642Z,1.50
2023-03-02T17:51:36.890Z,1.60
2023-03-02T17:54:25.683Z,1.50
2023-03-02T17:57:13.212Z,1.50
2023-03-02T18:00:00.130Z,1.50
2023-03-02T18:02:47.959Z,1.50
2023-03-02T18:05:37.217Z,1.40
2023-03-02T18:08:24.547Z,1.30
2023-03-02T18:11:13.164Z,1.40
2023-03-02T18:14:00.726Z,1.50
2023-03-02T18:16:50.309Z,1.40
2023-03-02T18:19:39.333Z,1.40
2023-03-02T18:22:26.834Z,1.40
2023-03-02T18:25:13.984Z,1.50
2023-03-02T18:28:03.079Z,1.70
2023-03-02T18:30:50.273Z,1.60
2023-03-02T18:33:38.484Z,1.50
2023-03-02T18:36:26.097Z,1.50
2023-03-02T18:39:13.022Z,1.40
2023-03-02T18:41:59.892Z,1.30
2023-03-02T18:44:48.760Z,1.30
2023-03-02T18:47:36.692Z,1.30
2023-03-02T18:50:24.708Z,1.30
2023-03-02T18:53:12.958Z,1.20
2023-03-02T18:56:00.644Z,1.20
2023-03-02T18:58:49.689Z,1.10
2023-03-02T19:01:38.522Z,1.00
2023-03-02T19:04:26.824Z,1.00
2023-03-02T19:07:13.814Z,0.70
2023-03-02T19:10:00.849Z,0.70
2023-03-02T19:12:47.996Z,0.60
2023-03-02T19:15:34.940Z,0.70
2023-03-02T19:18:25.825Z,0.50
2023-03-02T19:21:13.725Z,0.50
2023-03-02T19:24:01.778Z,0.40
2023-03-02T19:26:48.524Z,0.40
2023-03-02T19:29:35.585Z,0.50
2023-03-02T19:32:22.923Z,0.50
2023-03-02T19:35:14.842Z,0.50
2023-03-02T19:38:02.070Z,0.60
2023-03-02T19:40:49.183Z,0.70
2023-03-02T19:43:36.460Z,0.80
2023-03-02T19:46:23.798Z,0.90
2023-03-02T19:49:11.094Z,0.90
2023-03-02T19:52:02.049Z,1.10
2023-03-02T19:54:50.772Z,1.00
2023-03-02T19:57:38.187Z,1.00
2023-03-02T20:00:25.845Z,1.00
2023-03-02T20:03:12.749Z,1.00
2023-03-02T20:05:59.871Z,1.10
2023-03-02T20:08:49.247Z,0.90
2023-03-02T20:11:38.355Z,1.00
2023-03-02T20:14:33.710Z,1.00
2023-03-02T20:17:23.156Z,1.00
2023-03-02T20:20:11.907Z,0.90
2023-03-02T20:23:00.155Z,0.90
2023-03-02T20:25:48.670Z,0.90
2023-03-02T20:28:36.215Z,0.90
2023-03-02T20:31:25.007Z,0.90
2023-03-02T20:34:16.642Z,0.90
2023-03-02T20:37:04.957Z,0.90
2023-03-02T20:39:53.032Z,0.90
2023-03-02T20:42:42.461Z,0.90
2023-03-02T20:45:30.230Z,0.80
2023-03-02T20:48:17.631Z,0.80
2023-03-02T20:51:05.644Z,0.90
2023-03-02T20:53:53.351Z,0.90
2023-03-02T20:56:40.469Z,0.80
2023-03-02T20:59:30.750Z,0.80
2023-03-02T21:02:20.446Z,0.80
2023-03-02T21:05:07.937Z,0.80
2023-03-02T21:07:55.601Z,0.70
2023-03-02T21:10:45.055Z,0.60
2023-03-02T21:13:32.318Z,0.60
2023-03-02T21:16:24.018Z,0.40
2023-03-02T21:19:14.489Z,0.30
2023-03-02T21:22:01.992Z,0.40
2023-03-02T21:24:49.334Z,0.10
2023-03-02T21:27:36.699Z,0.00
2023-03-02T21:30:26.105Z,-0.10
2023-03-02T21:33:14.641Z,-0.20
2023-03-02T21:36:01.728Z,-0.20
2023-03-02T21:38:48.816Z,-0.30
2023-03-02T21:41:36.840Z,-0.40
2023-03-02T21:44:24.905Z,-0.40
2023-03-02T21:47:11.974Z,-0.50
2023-03-02T21:50:00.234Z,-0.60
2023-03-02T21:52:47.358Z,-0.60
2023-03-02T21:55:34.755Z,-0.70
2023-03-02T21:58:22.732Z,-0.70
2023-03-02T22:01:09.728Z,-0.80
2023-03-02T22:03:57.401Z,-0.70
2023-03-02T22:06:46.040Z,-0.80
2023-03-02T22:09:32.785Z,-0.90
2023-03-02T22:12:22.456Z,-1.00
2023-03-02T22:15:15.582Z,-1.00
2023-03-02T22:18:02.746Z,-1.00
2023-03-02T22:20:51.821Z,-1.00
2023-03-02T22:23:40.469Z,-1.00
2023-03-02T22:26:27.546Z,-1.10
2023-03-02T22:29:17.359Z,-1.10
2023-03-02T22:32:16.581Z,-1.20
2023-03-02T22:35:15.027Z,-1.20
2023-03-02T22:38:12.302Z,-1.20
2023-03-02T22:41:00.834Z,-1.20
2023-03-02T22:43:52.995Z,-1.30
2023-03-02T22:46:40.728Z,-1.30
2023-03-02T22:49:29.646Z,-1.30
2023-03-02T22:52:18.558Z,-1.30
2023-03-02T22:55:32.037Z,-1.40
2023-03-02T22:58:48.075Z,-1.40
2023-03-02T23:01:40.823Z,-1.50
2023-03-02T23:04:31.958Z,-1.50
2023-03-02T23:07:20.978Z,-1.40
2023-03-02T23:10:18.341Z,-1.50
2023-03-02T23:13:05.053Z,-1.50
2023-03-02T23:15:53.940Z,-1.50
2023-03-02T23:18:43.178Z,-1.40
2023-03-02T23:21:38.536Z,-1.60
2023-03-02T23:24:26.372Z,-1.50
2023-03-02T23:27:13.450Z,-1.70
2023-03-02T23:30:00.354Z,-1.70
2023-03-02T23:32:48.567Z,-1.70
2023-03-02T23:35:35.596Z,-1.70
2023-03-02T23:38:22.899Z,-1.80
2023-03-02T23:41:10.077Z,-1.80
2023-03-02T23:43:56.782Z,-1.90
2023-03-02T23:46:44.013Z,-1.90
2023-03-02T23:49:32.382Z,-1.90
2023-03-02T23:52:19.079Z,-1.90
2023-03-02T23:55:06.846Z,-1.80
2023-03-02T23:57:58.052Z,-1.90
